Terminal Aerodrome Forecast
Issued by NWS Norman, OK

Home | Current Version | Previous Version | Text Only | Print | Product List | Glossary On
Versions: 1 2 3 4 5 6 7 8 9 10 11 12 13 14 15 16 17 18 19 20 21 22 23 24 25 26 27 28 29 30 31 32 33 34 35 36 37 38 39
145
FTUS44 KOUN 071140
TAFOKC
TAF
KOKC 071140Z 0712/0812 04009KT P6SM BKN026
      TEMPO 0717/0721 SCT030 BKN045
     FM072100 01015G24KT P6SM FEW007 BKN015
     FM080200 36012KT P6SM SCT015 BKN250=

USA.gov is the U.S. government's official web portal to all federal, state and local government web resources and services.